Time;durP1;ratioP1;P1;durP2;ratioP2;P2;SDS_P1;SDS_P2;PMS_P1;PMS_P2;Temp;Humidity;BMP_temperature;BMP_pressure;BME280_temperature;BME280_humidity;BME280_pressure;Samples;Min_cycle;Max_cycle;Signal;HPM_P1;HPM_P2
2023/07/23 00:01:04;;;;;;;14.95;7.13;;;14.80;99.90;;;;;;4941097;28;20046;-49
2023/07/23 00:03:30;;;;;;;10.70;6.75;;;14.80;99.90;;;;;;4944710;28;20081;-51
2023/07/23 00:05:56;;;;;;;10.63;6.60;;;14.70;99.90;;;;;;4930462;28;20054;-48
2023/07/23 00:08:22;;;;;;;12.00;6.50;;;14.70;99.90;;;;;;4931899;28;20505;-48
2023/07/23 00:10:48;;;;;;;11.18;6.55;;;14.70;99.90;;;;;;4945332;28;20050;-48
2023/07/23 00:13:14;;;;;;;11.15;6.70;;;14.80;99.90;;;;;;4932182;28;20035;-49
2023/07/23 00:15:40;;;;;;;11.48;6.47;;;14.70;99.90;;;;;;4932443;28;20513;-51
2023/07/23 00:18:05;;;;;;;11.13;6.35;;;14.70;99.90;;;;;;4941419;28;20061;-49
2023/07/23 00:20:31;;;;;;;12.57;6.53;;;14.70;99.90;;;;;;4945457;28;21121;-49
2023/07/23 00:22:57;;;;;;;10.43;6.28;;;14.70;99.90;;;;;;4927391;28;20047;-50
2023/07/23 00:25:22;;;;;;;12.95;6.22;;;14.70;99.90;;;;;;4945978;28;20051;-48
2023/07/23 00:27:48;;;;;;;14.35;6.72;;;14.70;99.90;;;;;;4946664;28;20045;-51
2023/07/23 00:30:14;;;;;;;13.52;6.65;;;14.70;99.90;;;;;;4940905;28;20034;-50
2023/07/23 00:32:39;;;;;;;12.65;6.57;;;14.70;99.90;;;;;;4946540;28;20093;-49
2023/07/23 00:35:06;;;;;;;9.90;6.00;;;14.70;99.90;;;;;;4942881;28;20054;-48
2023/07/23 00:37:31;;;;;;;11.32;6.63;;;14.70;99.90;;;;;;4944321;28;20043;-49
2023/07/23 00:39:57;;;;;;;11.18;6.35;;;14.60;99.90;;;;;;4943777;28;20402;-49
2023/07/23 00:42:23;;;;;;;9.82;6.38;;;14.60;99.90;;;;;;4939698;28;20132;-49
2023/07/23 00:44:49;;;;;;;16.88;6.60;;;14.60;99.90;;;;;;4944849;28;20047;-49
2023/07/23 00:47:16;;;;;;;13.23;6.45;;;14.60;99.90;;;;;;4946627;28;20089;-48
2023/07/23 00:49:43;;;;;;;11.23;6.30;;;14.60;99.90;;;;;;4946383;28;21108;-50
2023/07/23 00:52:09;;;;;;;11.98;6.88;;;14.60;99.90;;;;;;4949262;28;20042;-49
2023/07/23 00:54:35;;;;;;;12.10;7.30;;;14.60;99.90;;;;;;4948018;28;20051;-49
2023/07/23 00:57:02;;;;;;;9.93;6.35;;;14.60;99.90;;;;;;4934263;28;20086;-50
2023/07/23 00:59:30;;;;;;;13.20;6.50;;;14.50;99.90;;;;;;4946767;28;20058;-50
2023/07/23 01:01:57;;;;;;;11.07;6.40;;;14.60;99.90;;;;;;4945299;28;20054;-51
2023/07/23 01:04:23;;;;;;;9.98;6.18;;;14.60;99.90;;;;;;4950067;28;20126;-49
2023/07/23 01:06:50;;;;;;;12.38;6.88;;;14.60;99.90;;;;;;4929193;28;24141;-49
2023/07/23 01:09:18;;;;;;;9.23;6.57;;;14.60;99.90;;;;;;4938250;28;20082;-49
2023/07/23 01:11:44;;;;;;;12.93;7.07;;;14.50;99.90;;;;;;4958163;28;20051;-49
2023/07/23 01:14:09;;;;;;;10.07;6.60;;;14.60;99.90;;;;;;4949494;28;20053;-49
2023/07/23 01:16:36;;;;;;;15.45;6.60;;;14.60;99.90;;;;;;4922833;28;20051;-49
2023/07/23 01:19:02;;;;;;;10.55;7.25;;;14.50;99.90;;;;;;4916386;28;20045;-50
2023/07/23 01:21:28;;;;;;;12.10;7.15;;;14.50;99.90;;;;;;4944850;28;20070;-50
2023/07/23 01:23:54;;;;;;;12.35;6.82;;;14.60;99.90;;;;;;4943108;28;20049;-49
2023/07/23 01:26:20;;;;;;;12.02;7.05;;;14.50;99.90;;;;;;4946901;28;20046;-50
2023/07/23 01:28:46;;;;;;;11.00;6.90;;;14.50;99.90;;;;;;4927411;28;20073;-50
2023/07/23 01:31:12;;;;;;;10.75;7.20;;;14.50;99.90;;;;;;4946300;28;20120;-50
2023/07/23 01:33:40;;;;;;;15.43;6.90;;;14.50;99.90;;;;;;4950379;28;20166;-49
2023/07/23 01:36:06;;;;;;;11.10;7.10;;;14.50;99.90;;;;;;4947513;28;20386;-49
2023/07/23 01:38:31;;;;;;;9.02;6.50;;;14.50;99.90;;;;;;4950795;28;20051;-50
2023/07/23 01:40:58;;;;;;;12.60;7.07;;;14.50;99.90;;;;;;4953342;28;20034;-50
2023/07/23 01:43:24;;;;;;;13.32;7.07;;;14.50;99.90;;;;;;4954196;28;20050;-50
2023/07/23 01:45:50;;;;;;;10.73;7.00;;;14.50;99.90;;;;;;4936983;28;20051;-49
2023/07/23 01:48:16;;;;;;;11.10;6.75;;;14.50;99.90;;;;;;4949533;28;20391;-50
2023/07/23 01:50:42;;;;;;;8.57;6.57;;;14.50;99.90;;;;;;4933159;28;20126;-49
2023/07/23 01:53:08;;;;;;;9.98;6.30;;;14.60;99.90;;;;;;4947958;28;20086;-50
2023/07/23 01:55:34;;;;;;;11.88;7.18;;;14.50;99.90;;;;;;4945659;28;20046;-49
2023/07/23 01:57:59;;;;;;;9.30;5.90;;;14.50;99.90;;;;;;4931232;28;20039;-48
2023/07/23 02:00:26;;;;;;;10.68;6.40;;;14.60;99.90;;;;;;4946390;28;20670;-49
2023/07/23 02:02:52;;;;;;;9.23;6.35;;;14.60;99.90;;;;;;4942941;28;20050;-50
2023/07/23 02:05:18;;;;;;;12.15;6.80;;;14.60;99.90;;;;;;4946393;28;20042;-50
2023/07/23 02:07:44;;;;;;;9.65;6.20;;;14.60;99.90;;;;;;4948911;28;21868;-49
2023/07/23 02:10:14;;;;;;;11.52;6.40;;;14.60;99.90;;;;;;4931182;28;22845;-50
2023/07/23 02:12:39;;;;;;;12.43;6.55;;;14.60;99.90;;;;;;4945461;28;20559;-49
2023/07/23 02:15:05;;;;;;;9.40;6.25;;;14.60;99.90;;;;;;4928768;28;20057;-49
2023/07/23 02:17:31;;;;;;;9.90;6.07;;;14.60;99.90;;;;;;4944635;28;20078;-49
2023/07/23 02:19:57;;;;;;;9.85;6.03;;;14.60;99.90;;;;;;4935450;28;20070;-49
2023/07/23 02:22:23;;;;;;;9.40;5.97;;;14.60;99.90;;;;;;4929216;28;24671;-49
2023/07/23 02:24:48;;;;;;;11.02;6.30;;;14.60;99.90;;;;;;4945739;28;20769;-49
2023/07/23 02:27:15;;;;;;;8.73;6.45;;;14.60;99.90;;;;;;4935178;28;20075;-49
2023/07/23 02:29:41;;;;;;;12.25;6.57;;;14.60;99.90;;;;;;4946916;28;20378;-49
2023/07/23 02:32:07;;;;;;;10.25;6.53;;;14.60;99.90;;;;;;4946594;28;20050;-49
2023/07/23 02:34:33;;;;;;;10.63;6.28;;;14.60;99.90;;;;;;4945754;28;20055;-51
2023/07/23 02:36:58;;;;;;;14.18;6.68;;;14.60;99.90;;;;;;4946679;28;20072;-49
2023/07/23 02:39:24;;;;;;;10.80;6.80;;;14.60;99.90;;;;;;4925012;28;20039;-50
2023/07/23 02:41:50;;;;;;;10.65;6.50;;;14.60;99.90;;;;;;4945540;28;20126;-50
2023/07/23 02:44:16;;;;;;;10.82;6.38;;;14.60;99.90;;;;;;4947270;28;20038;-51
2023/07/23 02:46:41;;;;;;;10.55;6.30;;;14.60;99.90;;;;;;4930031;28;20039;-49
2023/07/23 02:49:07;;;;;;;8.13;5.72;;;14.60;99.90;;;;;;4943054;28;20038;-51
2023/07/23 02:51:33;;;;;;;11.05;5.70;;;14.60;99.90;;;;;;4946404;28;20561;-51
2023/07/23 02:53:58;;;;;;;11.23;6.40;;;14.60;99.90;;;;;;4945713;28;20047;-49
2023/07/23 02:56:24;;;;;;;10.70;5.95;;;14.60;99.90;;;;;;4944481;28;20035;-50
2023/07/23 02:58:50;;;;;;;11.32;6.13;;;14.60;99.90;;;;;;4932943;28;20038;-51
2023/07/23 03:01:16;;;;;;;8.50;5.93;;;14.60;99.90;;;;;;4943724;28;20481;-50
2023/07/23 03:03:41;;;;;;;9.27;5.80;;;14.60;99.90;;;;;;4946077;28;20038;-49
2023/07/23 03:06:10;;;;;;;9.60;5.90;;;14.60;99.90;;;;;;4911959;28;20173;-52
2023/07/23 03:08:36;;;;;;;9.55;6.00;;;14.60;99.90;;;;;;4944824;28;20043;-50
2023/07/23 03:11:05;;;;;;;9.32;6.03;;;14.70;99.90;;;;;;4945055;28;20396;-52
2023/07/23 03:13:30;;;;;;;10.48;5.97;;;14.60;99.90;;;;;;4945496;28;20042;-50
2023/07/23 03:15:56;;;;;;;7.65;5.43;;;14.70;99.90;;;;;;4945577;28;20133;-49
2023/07/23 03:18:22;;;;;;;8.85;5.70;;;14.60;99.90;;;;;;4914436;28;20060;-52
2023/07/23 03:20:48;;;;;;;9.07;6.22;;;14.60;99.90;;;;;;4943095;28;20133;-49
2023/07/23 03:23:14;;;;;;;9.23;6.30;;;14.70;99.90;;;;;;4943153;28;20043;-50
2023/07/23 03:25:40;;;;;;;9.82;6.22;;;14.70;99.90;;;;;;4942971;28;20181;-51
2023/07/23 03:28:05;;;;;;;10.05;6.05;;;14.60;99.90;;;;;;4947202;28;20315;-50
2023/07/23 03:30:31;;;;;;;9.20;6.10;;;14.60;99.90;;;;;;4916868;28;20049;-49
2023/07/23 03:32:57;;;;;;;10.55;6.47;;;14.70;99.90;;;;;;4949090;28;20137;-52
2023/07/23 03:35:23;;;;;;;8.38;5.65;;;14.60;99.90;;;;;;4940191;28;20058;-49
2023/07/23 03:37:48;;;;;;;12.65;6.50;;;14.60;99.90;;;;;;4934985;28;20460;-50
2023/07/23 03:40:14;;;;;;;8.13;6.32;;;14.70;99.90;;;;;;4948716;28;20053;-51
2023/07/23 03:42:40;;;;;;;11.13;6.43;;;14.60;99.90;;;;;;4950773;28;20157;-49
2023/07/23 03:45:06;;;;;;;9.05;5.95;;;14.60;99.90;;;;;;4920867;28;20050;-48
2023/07/23 03:47:32;;;;;;;12.25;6.20;;;14.60;99.90;;;;;;4947231;28;20969;-49
2023/07/23 03:49:59;;;;;;;12.80;6.28;;;14.60;99.90;;;;;;4951428;28;20043;-49
2023/07/23 03:52:25;;;;;;;10.45;6.50;;;14.60;99.90;;;;;;4949603;28;20378;-50
2023/07/23 03:54:51;;;;;;;9.27;6.47;;;14.70;99.90;;;;;;4949521;28;20050;-52
2023/07/23 03:57:16;;;;;;;9.32;6.22;;;14.70;99.90;;;;;;4949635;28;20058;-49
2023/07/23 03:59:44;;;;;;;13.02;7.20;;;14.70;99.90;;;;;;4945651;28;20043;-50
2023/07/23 04:02:11;;;;;;;10.30;6.95;;;14.70;99.90;;;;;;4925926;28;20706;-49
2023/07/23 04:04:38;;;;;;;11.32;6.80;;;14.70;99.90;;;;;;4943508;28;20038;-52
2023/07/23 04:07:05;;;;;;;12.77;7.18;;;14.70;99.90;;;;;;4941919;28;20039;-49
2023/07/23 04:09:31;;;;;;;13.43;8.00;;;14.70;99.90;;;;;;4941911;28;20053;-54
2023/07/23 04:11:57;;;;;;;14.38;7.40;;;14.60;99.90;;;;;;4943539;28;20493;-52
2023/07/23 04:14:23;;;;;;;10.25;7.28;;;14.60;99.90;;;;;;4941924;28;20046;-50
2023/07/23 04:16:49;;;;;;;10.30;7.13;;;14.60;99.90;;;;;;4929335;28;21114;-50
2023/07/23 04:19:15;;;;;;;12.15;7.57;;;14.60;99.90;;;;;;4943755;28;20439;-50
2023/07/23 04:21:41;;;;;;;13.57;7.68;;;14.60;99.90;;;;;;4941551;28;20039;-50
2023/07/23 04:24:07;;;;;;;13.48;7.25;;;14.60;99.90;;;;;;4940787;28;21260;-49
2023/07/23 04:26:33;;;;;;;11.93;7.18;;;14.60;99.90;;;;;;4943391;28;20057;-49
2023/07/23 04:29:00;;;;;;;12.35;7.15;;;14.60;99.90;;;;;;4943771;28;20031;-49
2023/07/23 04:31:26;;;;;;;11.90;6.47;;;14.70;99.90;;;;;;4942568;28;20476;-52
2023/07/23 04:33:52;;;;;;;16.77;6.60;;;14.70;99.90;;;;;;4928723;28;20031;-49
2023/07/23 04:36:18;;;;;;;11.15;6.88;;;14.70;99.90;;;;;;4930962;28;20114;-48
2023/07/23 04:38:44;;;;;;;10.30;6.78;;;14.70;99.90;;;;;;4922851;28;20405;-49
2023/07/23 04:41:11;;;;;;;11.05;7.18;;;14.70;99.90;;;;;;4942680;28;20122;-49
2023/07/23 04:43:38;;;;;;;13.70;7.35;;;14.70;99.90;;;;;;4946295;28;20046;-49
2023/07/23 04:46:07;;;;;;;10.27;7.30;;;14.70;99.90;;;;;;4942816;28;20129;-50
2023/07/23 04:48:34;;;;;;;11.63;7.25;;;14.70;99.90;;;;;;4946867;28;20043;-49
2023/07/23 04:51:01;;;;;;;11.07;7.15;;;14.70;99.90;;;;;;4944996;28;20394;-49
2023/07/23 04:53:27;;;;;;;12.73;6.70;;;14.70;99.90;;;;;;4946165;28;20426;-52
2023/07/23 04:55:54;;;;;;;9.00;6.45;;;14.70;99.90;;;;;;4946122;28;20050;-53
2023/07/23 04:58:20;;;;;;;13.45;7.25;;;14.70;99.90;;;;;;4950298;28;20117;-51
2023/07/23 05:00:47;;;;;;;11.55;7.05;;;14.70;99.90;;;;;;4927914;28;20038;-49
2023/07/23 05:03:13;;;;;;;12.05;6.60;;;14.70;99.90;;;;;;4930518;28;20674;-51
2023/07/23 05:05:48;;;;;;;9.68;7.10;;;14.70;99.90;;;;;;4950076;28;20047;-51
2023/07/23 05:08:14;;;;;;;11.05;7.28;;;14.70;99.90;;;;;;4953759;28;20081;-50
2023/07/23 05:10:40;;;;;;;13.23;7.10;;;14.70;99.90;;;;;;4950860;28;20157;-50
2023/07/23 05:13:06;;;;;;;14.27;6.88;;;14.80;99.90;;;;;;4953211;28;20047;-51
2023/07/23 05:15:32;;;;;;;13.07;6.97;;;14.80;99.90;;;;;;4951358;28;20050;-49
2023/07/23 05:17:57;;;;;;;10.18;7.30;;;14.80;99.90;;;;;;4928971;28;20047;-50
2023/07/23 05:20:23;;;;;;;10.77;6.80;;;14.70;99.90;;;;;;4959807;28;20047;-49
2023/07/23 05:22:50;;;;;;;9.43;6.70;;;14.80;99.90;;;;;;4932339;28;20048;-50
2023/07/23 05:25:16;;;;;;;11.15;6.90;;;14.80;99.90;;;;;;4944385;28;20767;-49
2023/07/23 05:27:42;;;;;;;11.75;7.15;;;14.80;99.90;;;;;;4944909;28;20053;-49
2023/07/23 05:30:07;;;;;;;12.50;7.60;;;14.80;99.90;;;;;;4946941;28;20078;-50
2023/07/23 05:32:33;;;;;;;12.20;7.45;;;14.80;99.90;;;;;;4947602;28;20158;-50
2023/07/23 05:34:59;;;;;;;11.50;7.47;;;14.80;99.90;;;;;;4930863;28;20054;-49
2023/07/23 05:37:25;;;;;;;15.77;7.47;;;14.80;99.90;;;;;;4945192;28;20618;-52
2023/07/23 05:39:54;;;;;;;13.35;7.80;;;14.80;99.90;;;;;;4936637;28;20097;-51
2023/07/23 05:42:20;;;;;;;13.48;7.97;;;14.90;99.90;;;;;;4950676;28;20074;-50
2023/07/23 05:44:47;;;;;;;11.18;7.97;;;14.90;99.90;;;;;;4937719;28;22212;-49
2023/07/23 05:47:13;;;;;;;11.95;8.13;;;14.90;99.90;;;;;;4947449;28;20054;-49
2023/07/23 05:49:38;;;;;;;11.80;8.05;;;14.90;99.90;;;;;;4938816;28;20042;-49
2023/07/23 05:52:05;;;;;;;12.75;8.18;;;14.90;99.90;;;;;;4946265;28;20054;-49
2023/07/23 05:54:31;;;;;;;11.73;8.15;;;14.90;99.90;;;;;;4930593;28;20042;-50
2023/07/23 05:56:57;;;;;;;13.15;8.27;;;14.90;99.90;;;;;;4943158;28;20053;-49
2023/07/23 05:59:23;;;;;;;17.45;8.30;;;14.90;99.90;;;;;;4947740;28;20488;-50
2023/07/23 06:01:49;;;;;;;12.85;8.50;;;14.90;99.90;;;;;;4945677;28;20035;-49
2023/07/23 06:04:15;;;;;;;14.73;8.40;;;14.90;99.90;;;;;;4946152;28;20050;-48
2023/07/23 06:06:41;;;;;;;13.82;8.57;;;15.00;99.90;;;;;;4943666;28;20039;-50
2023/07/23 06:09:06;;;;;;;13.75;8.35;;;15.00;99.90;;;;;;4916973;28;20134;-48
2023/07/23 06:11:32;;;;;;;14.90;8.40;;;15.00;99.90;;;;;;4945649;28;20170;-51
2023/07/23 06:13:58;;;;;;;14.57;8.45;;;15.00;99.90;;;;;;4949969;28;20030;-49
2023/07/23 06:16:25;;;;;;;12.30;8.65;;;15.00;99.90;;;;;;4943738;28;20054;-49
2023/07/23 06:18:51;;;;;;;15.85;8.07;;;15.00;99.90;;;;;;4945296;28;20416;-49
2023/07/23 06:21:17;;;;;;;12.43;8.25;;;15.10;99.90;;;;;;4929615;28;20054;-48
2023/07/23 06:23:43;;;;;;;13.35;8.13;;;15.00;99.90;;;;;;4948308;28;20051;-47
2023/07/23 06:26:08;;;;;;;13.27;8.18;;;15.10;99.90;;;;;;4929637;28;20035;-47
2023/07/23 06:28:34;;;;;;;13.43;8.32;;;15.10;99.90;;;;;;4912788;28;20548;-49
2023/07/23 06:31:00;;;;;;;15.15;9.15;;;15.20;99.90;;;;;;4925608;28;20504;-49
2023/07/23 06:33:27;;;;;;;14.30;8.30;;;15.20;99.90;;;;;;4929270;28;20042;-47
2023/07/23 06:35:53;;;;;;;13.73;9.07;;;15.30;99.90;;;;;;4950475;28;20620;-47
2023/07/23 06:38:19;;;;;;;13.20;8.70;;;15.30;99.90;;;;;;4945166;28;20110;-47
2023/07/23 06:40:46;;;;;;;14.52;8.65;;;15.30;99.90;;;;;;4939784;28;20087;-51
2023/07/23 06:43:13;;;;;;;12.88;8.32;;;15.40;99.90;;;;;;4950561;28;20066;-49
2023/07/23 06:45:39;;;;;;;16.50;8.35;;;15.40;99.90;;;;;;4947940;28;20501;-49
2023/07/23 06:48:05;;;;;;;16.00;9.00;;;15.40;99.90;;;;;;4949383;28;21918;-48
2023/07/23 06:50:31;;;;;;;14.30;8.32;;;15.50;99.90;;;;;;4930314;28;20099;-52
2023/07/23 06:52:57;;;;;;;12.55;8.40;;;15.50;99.90;;;;;;4940988;28;20201;-48
2023/07/23 06:55:23;;;;;;;10.95;7.93;;;15.50;99.90;;;;;;4941374;28;20055;-48
2023/07/23 06:57:49;;;;;;;13.02;9.00;;;15.50;99.90;;;;;;4930687;28;20062;-49
2023/07/23 07:00:15;;;;;;;14.07;8.70;;;15.60;99.90;;;;;;4938810;28;20043;-51
2023/07/23 07:02:41;;;;;;;13.68;8.55;;;15.60;99.90;;;;;;4944807;28;20039;-49
2023/07/23 07:05:07;;;;;;;15.10;8.88;;;15.70;99.90;;;;;;4942162;28;20050;-49
2023/07/23 07:07:35;;;;;;;11.85;8.27;;;15.70;99.90;;;;;;4940055;28;20520;-48
2023/07/23 07:10:01;;;;;;;14.40;8.70;;;15.70;99.90;;;;;;4934533;28;20039;-48
2023/07/23 07:12:28;;;;;;;13.85;8.63;;;15.70;99.90;;;;;;4940154;28;20061;-46
2023/07/23 07:14:54;;;;;;;18.90;8.57;;;15.70;99.90;;;;;;4940572;28;21963;-51
2023/07/23 07:17:20;;;;;;;14.23;8.45;;;15.80;99.90;;;;;;4944389;28;20129;-50
2023/07/23 07:19:46;;;;;;;16.25;8.85;;;15.80;99.90;;;;;;4931959;28;21461;-48
2023/07/23 07:22:12;;;;;;;13.63;8.50;;;15.80;99.90;;;;;;4944430;28;20049;-48
2023/07/23 07:24:38;;;;;;;15.00;9.13;;;15.80;99.90;;;;;;4943690;28;20077;-48
2023/07/23 07:27:08;;;;;;;12.43;8.60;;;15.80;99.90;;;;;;4943261;28;20051;-48
2023/07/23 07:29:34;;;;;;;15.07;8.82;;;15.80;99.90;;;;;;4945581;28;20035;-48
2023/07/23 07:32:00;;;;;;;16.23;9.15;;;15.80;99.90;;;;;;4945912;28;20046;-49
2023/07/23 07:34:26;;;;;;;12.32;8.50;;;15.80;99.90;;;;;;4942072;28;20054;-47
2023/07/23 07:36:52;;;;;;;15.70;8.77;;;15.80;99.90;;;;;;4942676;28;20050;-48
2023/07/23 07:39:17;;;;;;;14.88;9.25;;;15.80;99.90;;;;;;4940331;28;20053;-49
2023/07/23 07:41:43;;;;;;;13.55;9.02;;;15.80;99.90;;;;;;4926917;28;20039;-49
2023/07/23 07:44:09;;;;;;;16.20;9.43;;;15.90;99.90;;;;;;4939775;28;20057;-50
2023/07/23 07:46:35;;;;;;;15.25;9.40;;;15.90;99.90;;;;;;4918928;28;20039;-49
2023/07/23 07:49:00;;;;;;;17.00;9.43;;;15.90;99.90;;;;;;4949102;28;20452;-48
2023/07/23 07:51:26;;;;;;;15.40;8.88;;;15.90;99.90;;;;;;4945454;28;20046;-48
2023/07/23 07:53:52;;;;;;;13.57;9.30;;;15.90;99.90;;;;;;4943864;28;20125;-51
2023/07/23 07:56:18;;;;;;;13.82;9.15;;;16.00;99.90;;;;;;4930785;28;20098;-49
2023/07/23 07:58:45;;;;;;;15.60;9.70;;;15.90;99.90;;;;;;4938148;28;20689;-49
2023/07/23 08:01:11;;;;;;;15.80;9.15;;;16.00;99.90;;;;;;4941951;28;20456;-51
2023/07/23 08:03:37;;;;;;;14.80;9.43;;;16.00;99.90;;;;;;4945185;28;20138;-48
2023/07/23 08:06:03;;;;;;;16.15;9.45;;;16.00;99.90;;;;;;4947319;28;20043;-50
2023/07/23 08:08:31;;;;;;;15.80;9.20;;;16.00;99.90;;;;;;4947579;28;20122;-47
2023/07/23 08:10:58;;;;;;;15.48;9.95;;;16.10;99.90;;;;;;4946749;28;20043;-52
2023/07/23 08:13:25;;;;;;;16.25;9.98;;;16.10;99.90;;;;;;4947863;28;20502;-48
2023/07/23 08:15:52;;;;;;;16.98;10.05;;;16.10;99.90;;;;;;4951817;28;20497;-48
2023/07/23 08:18:18;;;;;;;18.58;9.88;;;16.10;99.90;;;;;;4952373;28;20544;-50
2023/07/23 08:20:44;;;;;;;17.00;9.35;;;16.10;99.90;;;;;;4951368;28;20409;-50
2023/07/23 08:23:10;;;;;;;17.08;9.25;;;16.10;99.90;;;;;;4949516;28;20039;-49
2023/07/23 08:25:37;;;;;;;13.98;9.13;;;16.20;99.90;;;;;;4945749;28;20370;-47
2023/07/23 08:28:03;;;;;;;16.25;9.85;;;16.20;99.90;;;;;;4945226;28;20042;-47
2023/07/23 08:30:30;;;;;;;13.43;8.40;;;16.20;99.90;;;;;;4946615;28;20572;-48
2023/07/23 08:33:01;;;;;;;13.55;8.38;;;16.20;99.90;;;;;;4931641;28;20598;-49
2023/07/23 08:35:28;;;;;;;14.70;8.57;;;16.20;99.90;;;;;;4929256;28;20039;-47
2023/07/23 08:37:55;;;;;;;13.98;9.02;;;16.20;99.90;;;;;;4941217;28;20046;-46
2023/07/23 08:40:23;;;;;;;14.52;9.60;;;16.20;99.90;;;;;;4950941;28;20121;-47
2023/07/23 08:42:54;;;;;;;15.63;10.90;;;16.20;99.90;;;;;;4944356;28;20050;-48
2023/07/23 08:46:02;;;;;;;17.67;11.10;;;16.20;99.90;;;;;;4928407;28;20137;-47
2023/07/23 08:48:47;;;;;;;14.00;11.13;;;16.20;99.90;;;;;;4923460;28;20055;-52
2023/07/23 08:51:13;;;;;;;13.63;10.63;;;16.20;99.90;;;;;;4942731;28;20039;-48
2023/07/23 08:53:39;;;;;;;14.70;10.50;;;16.20;99.90;;;;;;4943145;28;20089;-48
2023/07/23 08:56:05;;;;;;;15.02;10.52;;;16.20;99.90;;;;;;4944522;28;20050;-50
2023/07/23 08:58:31;;;;;;;14.07;9.63;;;16.20;99.90;;;;;;4937572;28;20983;-50
2023/07/23 09:00:57;;;;;;;12.43;9.63;;;16.30;99.90;;;;;;4927750;28;20580;-48
2023/07/23 09:03:23;;;;;;;13.45;10.10;;;16.30;99.90;;;;;;4941227;28;20050;-50
2023/07/23 09:05:49;;;;;;;15.27;9.90;;;16.30;99.90;;;;;;4926437;28;20054;-48
2023/07/23 09:08:15;;;;;;;13.75;9.50;;;16.40;99.90;;;;;;4915352;28;20413;-47
2023/07/23 09:10:41;;;;;;;12.25;9.80;;;16.40;99.90;;;;;;4941767;28;20397;-50
2023/07/23 09:13:11;;;;;;;15.68;10.68;;;16.40;99.90;;;;;;4947635;28;20191;-49
2023/07/23 09:15:37;;;;;;;12.43;9.98;;;16.30;99.90;;;;;;4942571;28;20038;-50
2023/07/23 09:18:03;;;;;;;13.52;10.07;;;16.30;99.90;;;;;;4939487;28;20059;-48
2023/07/23 09:20:29;;;;;;;13.30;9.90;;;16.30;99.90;;;;;;4946717;28;20552;-47
2023/07/23 09:22:55;;;;;;;15.60;9.90;;;16.30;99.90;;;;;;4943865;28;20051;-48
2023/07/23 09:25:20;;;;;;;13.88;9.73;;;16.30;99.90;;;;;;4943293;28;20045;-47
2023/07/23 09:27:46;;;;;;;14.10;10.07;;;16.30;99.90;;;;;;4942114;28;20035;-47
2023/07/23 09:30:19;;;;;;;14.60;9.70;;;16.30;99.90;;;;;;4958840;28;20046;-49
2023/07/23 09:32:54;;;;;;;12.75;9.38;;;16.30;99.90;;;;;;4943881;28;20043;-49
2023/07/23 09:35:22;;;;;;;12.40;9.18;;;16.30;99.90;;;;;;4943279;28;20126;-48
2023/07/23 09:37:58;;;;;;;10.73;8.93;;;16.40;99.90;;;;;;4939170;28;20105;-47
2023/07/23 09:40:34;;;;;;;12.68;9.35;;;16.40;99.90;;;;;;4939191;28;20047;-49
2023/07/23 09:43:01;;;;;;;14.07;10.07;;;16.40;99.90;;;;;;4937761;28;20513;-50
2023/07/23 09:45:30;;;;;;;14.95;9.25;;;16.40;99.90;;;;;;4939246;28;20031;-47
2023/07/23 09:48:00;;;;;;;13.57;9.88;;;16.40;99.90;;;;;;4942177;28;20050;-48
2023/07/23 09:50:26;;;;;;;15.27;9.38;;;16.40;99.90;;;;;;4942642;28;20110;-48
2023/07/23 09:52:52;;;;;;;13.02;9.27;;;16.40;99.90;;;;;;4939775;28;20047;-48
2023/07/23 09:55:20;;;;;;;11.43;9.55;;;16.40;99.90;;;;;;4930601;28;20579;-48
2023/07/23 09:57:51;;;;;;;16.75;8.95;;;16.40;99.90;;;;;;4942691;28;20038;-51
2023/07/23 10:00:17;;;;;;;12.30;8.60;;;16.40;99.90;;;;;;4952040;28;20042;-52
2023/07/23 10:02:47;;;;;;;14.30;9.48;;;16.50;99.90;;;;;;4951410;28;20070;-48
2023/07/23 10:05:15;;;;;;;13.32;9.93;;;16.40;99.90;;;;;;4948418;28;20054;-47
2023/07/23 10:07:42;;;;;;;12.50;9.70;;;16.50;99.90;;;;;;4936296;28;20130;-49
2023/07/23 10:10:08;;;;;;;13.48;10.20;;;16.50;99.90;;;;;;4937615;28;20392;-46
2023/07/23 10:12:34;;;;;;;12.50;9.30;;;16.50;99.90;;;;;;4957650;28;20043;-48
2023/07/23 10:15:01;;;;;;;13.73;9.65;;;16.50;99.90;;;;;;4935891;28;20062;-47
2023/07/23 10:17:28;;;;;;;12.35;8.98;;;16.50;99.90;;;;;;4951981;28;20245;-47
2023/07/23 10:19:56;;;;;;;13.35;9.10;;;16.50;99.90;;;;;;4954532;28;20453;-49
2023/07/23 10:22:23;;;;;;;16.38;9.80;;;16.40;99.90;;;;;;4938951;28;20047;-48
2023/07/23 10:24:52;;;;;;;13.48;9.80;;;16.50;99.90;;;;;;4946877;28;20568;-50
2023/07/23 10:27:18;;;;;;;14.25;9.23;;;16.50;99.90;;;;;;4944776;28;20170;-48
2023/07/23 10:30:19;;;;;;;14.90;9.07;;;16.50;99.90;;;;;;4916013;28;25553;-48
2023/07/23 10:33:06;;;;;;;13.45;9.40;;;16.50;99.90;;;;;;4934489;28;20552;-48
2023/07/23 10:35:54;;;;;;;13.45;8.93;;;16.60;99.90;;;;;;4944434;28;20054;-49
2023/07/23 10:38:29;;;;;;;12.20;8.93;;;16.60;99.90;;;;;;4954820;28;20040;-47
2023/07/23 10:40:56;;;;;;;12.50;8.32;;;16.60;99.90;;;;;;4939510;28;20073;-48
2023/07/23 10:43:22;;;;;;;13.80;8.85;;;16.60;99.90;;;;;;4939473;28;20042;-48
2023/07/23 10:45:52;;;;;;;12.85;8.48;;;16.60;99.90;;;;;;4957525;28;20057;-49
2023/07/23 10:48:17;;;;;;;15.73;9.25;;;16.60;99.90;;;;;;4938002;28;20043;-49
2023/07/23 10:51:06;;;;;;;14.25;8.38;;;16.70;99.90;;;;;;4956836;28;20393;-50
2023/07/23 10:53:31;;;;;;;15.63;8.90;;;16.70;99.90;;;;;;4955803;28;20040;-48
2023/07/23 10:56:00;;;;;;;13.45;8.60;;;16.70;99.90;;;;;;4954608;28;20039;-51
2023/07/23 10:58:28;;;;;;;13.63;8.25;;;16.80;99.90;;;;;;4956318;28;20759;-48
2023/07/23 11:00:59;;;;;;;11.82;8.57;;;16.80;99.90;;;;;;4954280;28;20043;-49
2023/07/23 11:03:26;;;;;;;19.50;9.55;;;16.80;99.90;;;;;;4955479;28;20445;-47
2023/07/23 11:05:52;;;;;;;13.93;8.43;;;16.80;99.90;;;;;;4955435;28;20362;-46
2023/07/23 11:08:23;;;;;;;11.90;8.73;;;16.90;99.90;;;;;;4954529;28;20450;-49
2023/07/23 11:11:01;;;;;;;13.50;8.15;;;16.90;99.90;;;;;;4969063;28;20134;-48
2023/07/23 11:13:31;;;;;;;13.18;8.27;;;16.90;99.90;;;;;;4953606;28;20123;-51
2023/07/23 11:15:57;;;;;;;14.15;8.85;;;17.00;99.90;;;;;;4948143;28;20058;-48
2023/07/23 11:18:23;;;;;;;14.35;8.57;;;17.00;99.90;;;;;;4940072;28;20063;-50
2023/07/23 11:20:51;;;;;;;12.57;8.40;;;17.00;99.90;;;;;;4940788;28;20357;-49
2023/07/23 11:23:20;;;;;;;11.70;8.43;;;17.10;99.90;;;;;;4953609;28;20046;-51
2023/07/23 11:25:47;;;;;;;12.27;8.15;;;17.10;99.90;;;;;;4956130;28;20501;-48
2023/07/23 11:28:15;;;;;;;12.93;8.63;;;17.10;99.90;;;;;;4944766;28;20619;-48
2023/07/23 11:30:41;;;;;;;14.10;8.55;;;17.20;99.90;;;;;;4944403;28;20442;-48
2023/07/23 11:33:08;;;;;;;12.52;9.10;;;17.20;99.90;;;;;;4938331;28;20031;-48
2023/07/23 11:35:34;;;;;;;15.43;8.40;;;17.20;99.90;;;;;;4941826;28;20058;-49
2023/07/23 11:38:02;;;;;;;15.00;9.00;;;17.20;99.90;;;;;;4956408;28;20050;-51
2023/07/23 11:40:28;;;;;;;13.13;8.50;;;17.20;99.90;;;;;;4955297;28;20089;-49
2023/07/23 11:42:54;;;;;;;14.50;8.80;;;17.20;99.90;;;;;;4957021;28;20507;-49
2023/07/23 11:45:21;;;;;;;12.52;8.40;;;17.30;99.90;;;;;;4940411;28;20075;-49
2023/07/23 11:47:48;;;;;;;10.98;7.75;;;17.30;99.90;;;;;;4953989;28;20086;-48
2023/07/23 11:50:14;;;;;;;9.95;8.07;;;17.30;99.90;;;;;;4953678;28;20105;-49
2023/07/23 11:52:40;;;;;;;12.48;7.88;;;17.30;99.90;;;;;;4953046;28;20086;-47
2023/07/23 11:55:27;;;;;;;11.15;7.93;;;17.30;99.90;;;;;;4954092;28;20194;-50
2023/07/23 11:57:58;;;;;;;11.73;7.47;;;17.30;99.90;;;;;;4945743;28;20054;-52
2023/07/23 12:00:31;;;;;;;11.43;7.72;;;17.20;99.90;;;;;;4956793;28;20508;-51
2023/07/23 12:02:57;;;;;;;12.52;8.20;;;17.20;99.90;;;;;;4956315;28;20126;-50
2023/07/23 12:05:24;;;;;;;10.32;7.80;;;17.20;99.90;;;;;;4945200;28;20055;-49
2023/07/23 12:07:53;;;;;;;11.85;8.15;;;17.20;99.90;;;;;;4954094;28;20396;-50
2023/07/23 12:10:20;;;;;;;11.23;7.88;;;17.20;99.90;;;;;;4953516;28;20142;-48
2023/07/23 12:12:46;;;;;;;11.13;7.70;;;17.20;99.90;;;;;;4956047;28;20054;-48
2023/07/23 12:15:16;;;;;;;10.52;8.23;;;17.20;99.90;;;;;;4956265;28;21069;-49
2023/07/23 12:17:43;;;;;;;11.20;7.78;;;17.10;99.90;;;;;;4919853;28;20495;-47
2023/07/23 12:20:10;;;;;;;10.30;7.85;;;17.20;99.90;;;;;;4952419;28;20046;-48
2023/07/23 12:23:08;;;;;;;13.27;7.93;;;17.10;99.90;;;;;;4947597;28;20054;-49
2023/07/23 12:25:34;;;;;;;10.23;7.40;;;17.20;99.90;;;;;;4946845;28;20505;-48
2023/07/23 12:27:59;;;;;;;11.45;7.20;;;17.20;99.90;;;;;;4953187;28;20056;-49
2023/07/23 12:30:25;;;;;;;11.02;7.28;;;17.20;99.90;;;;;;4924574;28;20034;-50
2023/07/23 12:32:51;;;;;;;9.32;7.00;;;17.20;99.90;;;;;;4937479;28;20047;-52
2023/07/23 12:35:17;;;;;;;10.63;7.15;;;17.30;99.90;;;;;;4938944;28;20133;-51
2023/07/23 12:37:42;;;;;;;10.73;6.97;;;17.40;99.90;;;;;;4945119;28;20045;-49